sim
Sign-in with your pilot id or email,
or register
Callsign
Passwort

Schedule Details

Flight Number: RYR4081
Departure: Liverpool John Lennon Airport (EGGP) at 14:35
Arrival: Fuerteventura Airport (GCFV) at 18:55
Route: Ryanair Passenger Schedule. Enter filed route here before submitting Pirep.

Weather Information
Getting current METAR information for EGGP 211620Z 20006KT CAVOK 14/08 Q1025
Getting current METAR information for GCFV 211600Z 06005KT 030V110 CAVOK 20/14 Q1020

Schedule Frequency

Route Map